createdAt,value
2023-05-14T00:01:29.287Z,96464.41
2023-05-14T00:04:01.159Z,96460.28
2023-05-14T00:06:40.963Z,96462.72
2023-05-14T00:09:13.257Z,96457.72
2023-05-14T00:11:44.866Z,96459.78
2023-05-14T00:14:16.470Z,96457.50
2023-05-14T00:16:48.020Z,96462.72
2023-05-14T00:19:19.651Z,96454.28
2023-05-14T00:21:53.995Z,96461.41
2023-05-14T00:24:25.605Z,96452.94
2023-05-14T00:26:57.172Z,96455.53
2023-05-14T00:29:28.898Z,96452.91
2023-05-14T00:32:00.540Z,96444.84
2023-05-14T00:34:32.145Z,96453.09
2023-05-14T00:37:03.769Z,96454.81
2023-05-14T00:39:37.679Z,96453.50
2023-05-14T00:42:12.308Z,96452.63
2023-05-14T00:44:43.845Z,96445.09
2023-05-14T00:47:15.966Z,96457.09
2023-05-14T00:49:47.561Z,96458.06
2023-05-14T00:52:19.728Z,96456.09
2023-05-14T00:54:51.854Z,96450.44
2023-05-14T00:57:23.458Z,96452.47
2023-05-14T00:59:55.504Z,96453.56
2023-05-14T01:02:27.148Z,96452.81
2023-05-14T01:04:58.828Z,96456.50
2023-05-14T01:07:44.234Z,96452.53
2023-05-14T01:10:29.325Z,96452.97
2023-05-14T01:13:31.949Z,96452.19
2023-05-14T01:16:05.084Z,96452.22
2023-05-14T01:18:37.200Z,96449.81
2023-05-14T01:21:43.163Z,96445.31
2023-05-14T01:24:14.769Z,96451.34
2023-05-14T01:26:46.475Z,96451.53
2023-05-14T01:29:29.150Z,96446.69
2023-05-14T01:32:04.319Z,96444.47
2023-05-14T01:34:39.568Z,96447.16
2023-05-14T01:37:12.840Z,96449.50
2023-05-14T01:39:45.772Z,96438.69
2023-05-14T01:42:17.384Z,96440.13
2023-05-14T01:44:49.233Z,96443.56
2023-05-14T01:47:20.879Z,96442.91
2023-05-14T01:49:52.485Z,96441.47
2023-05-14T01:52:24.168Z,96443.31
2023-05-14T01:54:58.453Z,96442.50
2023-05-14T01:57:30.061Z,96437.72
2023-05-14T02:00:02.141Z,96425.78
2023-05-14T02:02:33.890Z,96440.63
2023-05-14T02:05:07.162Z,96432.03
2023-05-14T02:07:39.330Z,96430.19
2023-05-14T02:10:11.421Z,96427.38
2023-05-14T02:12:43.026Z,96430.41
2023-05-14T02:15:14.563Z,96427.59
2023-05-14T02:17:46.127Z,96431.78
2023-05-14T02:20:17.829Z,96429.19
2023-05-14T02:22:49.381Z,96423.78
2023-05-14T02:25:20.967Z,96420.81
2023-05-14T02:27:52.526Z,96418.59
2023-05-14T02:30:24.348Z,96416.41
2023-05-14T02:32:56.286Z,96410.31
2023-05-14T02:35:27.909Z,96409.22
2023-05-14T02:37:59.641Z,96403.84
2023-05-14T02:40:31.355Z,96412.78
2023-05-14T02:43:03.011Z,96408.25
2023-05-14T02:45:34.608Z,96411.19
2023-05-14T02:48:06.627Z,96413.69
2023-05-14T02:50:38.201Z,96410.72
2023-05-14T02:53:09.879Z,96410.84
2023-05-14T02:55:41.425Z,96408.66
2023-05-14T02:58:16.058Z,96408.44
2023-05-14T03:00:47.693Z,96404.94
2023-05-14T03:03:22.120Z,96391.53
2023-05-14T03:05:56.476Z,96395.56
2023-05-14T03:08:28.085Z,96397.91
2023-05-14T03:10:59.636Z,96390.59
2023-05-14T03:13:31.226Z,96385.16
2023-05-14T03:16:02.725Z,96389.09
2023-05-14T03:18:36.299Z,96385.09
2023-05-14T03:21:09.106Z,96389.34
2023-05-14T03:23:40.946Z,96385.50
2023-05-14T03:26:12.548Z,96387.63
2023-05-14T03:28:44.963Z,96381.81
2023-05-14T03:31:16.620Z,96387.97
2023-05-14T03:33:48.447Z,96395.22
2023-05-14T03:36:23.064Z,96381.72
2023-05-14T03:38:54.620Z,96387.53
2023-05-14T03:41:26.228Z,96394.31
2023-05-14T03:43:57.810Z,96391.03
2023-05-14T03:46:30.671Z,96391.44
2023-05-14T03:49:02.340Z,96392.19
2023-05-14T03:51:34.032Z,96396.69
2023-05-14T03:54:07.078Z,96387.53
2023-05-14T03:56:38.680Z,96389.91
2023-05-14T03:59:10.334Z,96391.22
2023-05-14T04:01:42.039Z,96391.16
2023-05-14T04:04:13.749Z,96395.91
2023-05-14T04:06:45.444Z,96389.75
2023-05-14T04:09:17.044Z,96389.84
2023-05-14T04:11:48.589Z,96391.63
2023-05-14T04:14:20.173Z,96395.44
2023-05-14T04:16:51.814Z,96388.31
2023-05-14T04:19:25.531Z,96393.91
2023-05-14T04:21:57.138Z,96394.13
2023-05-14T04:24:31.891Z,96383.03
2023-05-14T04:27:04.297Z,96386.75
2023-05-14T04:29:35.921Z,96383.69
2023-05-14T04:32:07.805Z,96389.00
2023-05-14T04:34:40.033Z,96393.38
2023-05-14T04:37:11.662Z,96391.16
2023-05-14T04:39:43.603Z,96391.41
2023-05-14T04:42:15.190Z,96385.75
2023-05-14T04:44:46.803Z,96398.25
2023-05-14T04:47:18.454Z,96397.22
2023-05-14T04:49:50.295Z,96391.22
2023-05-14T04:52:24.332Z,96388.34
2023-05-14T04:54:56.953Z,96389.00
2023-05-14T04:57:28.549Z,96398.91
2023-05-14T05:00:00.124Z,96385.78
2023-05-14T05:02:56.706Z,96394.16
2023-05-14T05:05:42.907Z,96397.53
2023-05-14T05:08:14.485Z,96392.66
2023-05-14T05:10:46.139Z,96388.97
2023-05-14T05:13:17.820Z,96391.16
2023-05-14T05:15:49.439Z,96396.34
2023-05-14T05:18:21.244Z,96390.84
2023-05-14T05:20:56.219Z,96390.28
2023-05-14T05:23:27.698Z,96393.25
2023-05-14T05:25:59.255Z,96403.66
2023-05-14T05:28:31.045Z,96394.00
2023-05-14T05:31:02.946Z,96402.38
2023-05-14T05:33:35.408Z,96400.84
2023-05-14T05:36:09.715Z,96395.31
2023-05-14T05:38:41.435Z,96396.88
2023-05-14T05:41:13.065Z,96404.81
2023-05-14T05:43:44.656Z,96399.44
2023-05-14T05:46:16.414Z,96393.56
2023-05-14T05:48:47.986Z,96390.72
2023-05-14T05:51:19.656Z,96390.91
2023-05-14T05:53:51.242Z,96404.97
2023-05-14T05:56:22.809Z,96395.16
2023-05-14T05:58:54.358Z,96394.47
2023-05-14T06:01:26.724Z,96405.78
2023-05-14T06:03:58.667Z,96402.00
2023-05-14T06:06:30.791Z,96399.81
2023-05-14T06:09:02.488Z,96408.31
2023-05-14T06:11:34.112Z,96399.81
2023-05-14T06:14:05.701Z,96399.53
2023-05-14T06:16:44.484Z,96396.34
2023-05-14T06:19:16.176Z,96402.75
2023-05-14T06:21:47.891Z,96397.16
2023-05-14T06:24:20.394Z,96394.88
2023-05-14T06:26:52.057Z,96404.09
2023-05-14T06:29:23.717Z,96397.34
2023-05-14T06:32:03.095Z,96400.50
2023-05-14T06:34:34.730Z,96398.00
2023-05-14T06:37:07.135Z,96398.75
2023-05-14T06:39:39.277Z,96401.91
2023-05-14T06:42:10.847Z,96392.66
2023-05-14T06:44:42.912Z,96392.19
2023-05-14T06:47:14.538Z,96396.00
2023-05-14T06:49:46.354Z,96405.03
2023-05-14T06:52:17.969Z,96397.00
2023-05-14T06:54:49.681Z,96407.13
2023-05-14T06:57:21.363Z,96410.13
2023-05-14T06:59:55.793Z,96414.09
2023-05-14T07:02:29.688Z,96396.06
2023-05-14T07:05:04.448Z,96402.84
2023-05-14T07:07:36.029Z,96401.75
2023-05-14T07:10:10.598Z,96404.19
2023-05-14T07:12:42.394Z,96406.91
2023-05-14T07:15:14.019Z,96401.53
2023-05-14T07:17:45.682Z,96398.28
2023-05-14T07:20:17.331Z,96404.03
2023-05-14T07:22:49.002Z,96404.78
2023-05-14T07:25:20.685Z,96403.63
2023-05-14T07:27:52.303Z,96404.41
2023-05-14T07:30:24.752Z,96389.97
2023-05-14T07:32:56.848Z,96397.97
2023-05-14T07:35:28.523Z,96393.59
2023-05-14T07:38:00.352Z,96393.59
2023-05-14T07:40:32.000Z,96396.16
2023-05-14T07:43:03.628Z,96401.94
2023-05-14T07:45:37.203Z,96395.66
2023-05-14T07:48:09.090Z,96397.59
2023-05-14T07:50:40.814Z,96393.06
2023-05-14T07:53:15.615Z,96390.34
2023-05-14T07:55:49.250Z,96389.59
2023-05-14T07:58:20.824Z,96395.69
2023-05-14T08:00:56.682Z,96391.88
2023-05-14T08:03:28.479Z,96391.06
2023-05-14T08:06:00.174Z,96393.34
2023-05-14T08:08:31.863Z,96390.78
2023-05-14T08:11:04.184Z,96385.53
2023-05-14T08:13:38.112Z,96379.00
2023-05-14T08:16:10.064Z,96376.47
2023-05-14T08:18:44.044Z,96375.75
2023-05-14T08:21:18.356Z,96371.09
2023-05-14T08:23:49.883Z,96377.31
2023-05-14T08:26:24.242Z,96377.09
2023-05-14T08:28:55.862Z,96370.72
2023-05-14T08:31:27.458Z,96377.03
2023-05-14T08:33:59.194Z,96379.53
2023-05-14T08:36:33.523Z,96375.97
2023-05-14T08:39:09.094Z,96380.28
2023-05-14T08:41:41.357Z,96363.75
2023-05-14T08:44:20.896Z,96373.47
2023-05-14T08:46:54.512Z,96372.22
2023-05-14T08:49:43.086Z,96373.16
2023-05-14T08:52:18.148Z,96366.47
2023-05-14T08:54:53.646Z,96363.06
2023-05-14T08:57:26.719Z,96369.78
2023-05-14T08:59:58.550Z,96370.63
2023-05-14T09:02:31.755Z,96359.00
2023-05-14T09:05:04.289Z,96365.91
2023-05-14T09:07:36.329Z,96373.84
2023-05-14T09:10:09.182Z,96367.72
2023-05-14T09:12:40.836Z,96364.31
2023-05-14T09:15:13.226Z,96360.47
2023-05-14T09:17:47.955Z,96356.84
2023-05-14T09:20:22.593Z,96362.38
2023-05-14T09:22:54.695Z,96362.72
2023-05-14T09:25:28.462Z,96362.88
2023-05-14T09:28:00.149Z,96349.59
2023-05-14T09:30:32.247Z,96358.59
2023-05-14T09:33:04.350Z,96344.44
2023-05-14T09:35:41.436Z,96352.50
2023-05-14T09:38:16.074Z,96353.94
2023-05-14T09:40:48.167Z,96352.31
2023-05-14T09:43:19.945Z,96353.13
2023-05-14T09:45:52.660Z,96348.97
2023-05-14T09:48:26.240Z,96347.88
2023-05-14T09:50:57.918Z,96344.06
2023-05-14T09:53:32.727Z,96340.13
2023-05-14T09:56:04.613Z,96342.75
2023-05-14T09:58:36.307Z,96340.84
2023-05-14T10:01:08.332Z,96337.63
2023-05-14T10:03:40.571Z,96330.28
2023-05-14T10:06:16.242Z,96334.72
2023-05-14T10:08:49.402Z,96333.41
2023-05-14T10:11:33.320Z,96333.44
2023-05-14T10:14:09.216Z,96329.97
2023-05-14T10:16:48.480Z,96326.09
2023-05-14T10:19:25.575Z,96330.41
2023-05-14T10:22:05.104Z,96329.13
2023-05-14T10:24:39.125Z,96320.72
2023-05-14T10:27:13.226Z,96326.28
2023-05-14T10:29:55.561Z,96330.06
2023-05-14T10:32:27.395Z,96332.06
2023-05-14T10:35:01.853Z,96336.91
2023-05-14T10:37:33.458Z,96321.31
2023-05-14T10:40:10.056Z,96325.25
2023-05-14T10:42:43.763Z,96331.66
2023-05-14T10:45:15.961Z,96323.91
2023-05-14T10:47:48.740Z,96328.56
2023-05-14T10:50:21.109Z,96323.09
2023-05-14T10:52:57.108Z,96323.75
2023-05-14T10:55:28.714Z,96313.44
2023-05-14T10:58:01.465Z,96313.41
2023-05-14T11:00:36.758Z,96311.09
2023-05-14T11:03:10.863Z,96315.22
2023-05-14T11:05:42.488Z,96311.22
2023-05-14T11:08:17.022Z,96304.06
2023-05-14T11:10:49.394Z,96305.03
2023-05-14T11:13:21.685Z,96303.31
2023-05-14T11:15:53.655Z,96299.38
2023-05-14T11:18:33.554Z,96307.13
2023-05-14T11:21:07.644Z,96298.16
2023-05-14T11:23:39.217Z,96294.50
2023-05-14T11:26:11.390Z,96292.81
2023-05-14T11:28:44.592Z,96300.66
2023-05-14T11:31:19.587Z,96283.41
2023-05-14T11:33:52.498Z,96287.75
2023-05-14T11:36:24.151Z,96287.50
2023-05-14T11:38:55.730Z,96290.94
2023-05-14T11:41:31.380Z,96279.22
2023-05-14T11:44:03.494Z,96274.91
2023-05-14T11:46:35.212Z,96281.59
2023-05-14T11:49:07.062Z,96276.75
2023-05-14T11:51:38.629Z,96273.31
2023-05-14T11:54:10.620Z,96273.06
2023-05-14T11:56:42.249Z,96290.13
2023-05-14T11:59:13.831Z,96278.50
2023-05-14T12:01:50.720Z,96280.34
2023-05-14T12:04:22.908Z,96275.06
2023-05-14T12:06:57.681Z,96282.72
2023-05-14T12:09:29.230Z,96281.25
2023-05-14T12:12:11.967Z,96275.72
2023-05-14T12:14:45.266Z,96280.28
2023-05-14T12:17:22.156Z,96276.97
2023-05-14T12:19:53.919Z,96270.38
2023-05-14T12:22:25.583Z,96265.84
2023-05-14T12:24:59.953Z,96263.88
2023-05-14T12:27:31.596Z,96266.09
2023-05-14T12:30:20.593Z,96265.53
2023-05-14T12:32:53.714Z,96258.75
2023-05-14T12:35:25.523Z,96257.00
2023-05-14T12:37:57.326Z,96245.31
2023-05-14T12:40:29.062Z,96236.53
2023-05-14T12:43:00.692Z,96251.81
2023-05-14T12:45:32.419Z,96255.28
2023-05-14T12:48:04.532Z,96238.97
2023-05-14T12:50:36.093Z,96244.50
2023-05-14T12:53:07.677Z,96245.88
2023-05-14T12:55:39.285Z,96246.31
2023-05-14T12:58:10.878Z,96247.06
2023-05-14T13:00:42.467Z,96243.41
2023-05-14T13:03:14.238Z,96244.09
2023-05-14T13:05:45.946Z,96232.19
2023-05-14T13:08:18.022Z,96239.88
2023-05-14T13:10:49.646Z,96232.34
2023-05-14T13:13:24.400Z,96233.16
2023-05-14T13:15:55.947Z,96233.47
2023-05-14T13:18:27.528Z,96235.72
2023-05-14T13:21:04.360Z,96227.94
2023-05-14T13:23:36.041Z,96226.22
2023-05-14T13:26:07.786Z,96229.47
2023-05-14T13:28:39.519Z,96220.50
2023-05-14T13:31:13.230Z,96217.09
2023-05-14T13:33:45.285Z,96217.09
2023-05-14T13:36:16.988Z,96219.59
2023-05-14T13:38:50.947Z,96226.00
2023-05-14T13:41:22.675Z,96221.75
2023-05-14T13:43:54.250Z,96216.72
2023-05-14T13:46:26.327Z,96212.97
2023-05-14T13:48:59.944Z,96218.03
2023-05-14T13:51:31.529Z,96217.69
2023-05-14T13:54:03.944Z,96206.56
2023-05-14T13:56:35.608Z,96218.94
2023-05-14T13:59:07.274Z,96208.22
2023-05-14T14:01:38.942Z,96208.28
2023-05-14T14:04:10.756Z,96204.09
2023-05-14T14:06:44.679Z,96196.63
2023-05-14T14:09:16.242Z,96192.81
2023-05-14T14:11:48.513Z,96192.28
2023-05-14T14:14:20.300Z,96195.13
2023-05-14T14:16:53.004Z,96190.41
2023-05-14T14:19:24.671Z,96194.53
2023-05-14T14:21:58.336Z,96196.34
2023-05-14T14:24:29.907Z,96186.03
2023-05-14T14:27:02.433Z,96184.91
2023-05-14T14:29:34.471Z,96193.16
2023-05-14T14:32:06.715Z,96179.94
2023-05-14T14:34:38.339Z,96178.44
2023-05-14T14:37:10.055Z,96183.06
2023-05-14T14:39:41.757Z,96184.28
2023-05-14T14:42:13.447Z,96190.56
2023-05-14T14:44:45.050Z,96176.13
2023-05-14T14:47:16.617Z,96179.34
2023-05-14T14:49:48.242Z,96174.84
2023-05-14T14:52:19.901Z,96170.38
2023-05-14T14:54:54.298Z,96161.16
2023-05-14T14:57:26.740Z,96163.91
2023-05-14T14:59:59.160Z,96159.91
2023-05-14T15:02:31.605Z,96154.22
2023-05-14T15:05:03.376Z,96156.72
2023-05-14T15:07:34.977Z,96160.34
2023-05-14T15:10:07.437Z,96154.28
2023-05-14T15:12:39.139Z,96150.97
2023-05-14T15:15:13.332Z,96146.13
2023-05-14T15:17:47.991Z,96149.00
2023-05-14T15:20:19.558Z,96143.81
2023-05-14T15:22:52.441Z,96145.13
2023-05-14T15:25:25.311Z,96150.34
2023-05-14T15:27:57.073Z,96158.91
2023-05-14T15:30:28.774Z,96168.00
2023-05-14T15:33:00.721Z,96160.63
2023-05-14T15:35:34.846Z,96161.44
2023-05-14T15:38:07.008Z,96166.91
2023-05-14T15:40:38.628Z,96167.66
2023-05-14T15:43:13.055Z,96172.81
2023-05-14T15:45:49.098Z,96163.59
2023-05-14T15:48:20.712Z,96166.00
2023-05-14T15:50:59.136Z,96161.28
2023-05-14T15:53:30.745Z,96162.69
2023-05-14T15:56:02.911Z,96165.53
2023-05-14T15:58:34.564Z,96160.75
2023-05-14T16:01:06.087Z,96163.97
2023-05-14T16:03:37.862Z,96164.47
2023-05-14T16:06:10.165Z,96167.75
2023-05-14T16:08:41.704Z,96160.59
2023-05-14T16:11:13.753Z,96170.06
2023-05-14T16:13:45.319Z,96174.88
2023-05-14T16:16:17.000Z,96179.25
2023-05-14T16:18:51.734Z,96191.50
2023-05-14T16:21:23.396Z,96181.06
2023-05-14T16:23:54.964Z,96193.31
2023-05-14T16:26:26.629Z,96196.31
2023-05-14T16:28:58.223Z,96201.75
2023-05-14T16:31:31.481Z,96201.94
2023-05-14T16:34:06.153Z,96202.72
2023-05-14T16:36:37.790Z,96211.06
2023-05-14T16:39:09.349Z,96218.25
2023-05-14T16:41:41.125Z,96212.19
2023-05-14T16:44:18.544Z,96222.81
2023-05-14T16:46:50.844Z,96209.91
2023-05-14T16:49:22.890Z,96220.31
2023-05-14T16:51:57.505Z,96212.50
2023-05-14T16:54:29.059Z,96212.22
2023-05-14T16:57:00.649Z,96203.56
2023-05-14T16:59:32.202Z,96209.91
2023-05-14T17:02:04.036Z,96215.47
2023-05-14T17:04:38.830Z,96212.53
2023-05-14T17:07:11.583Z,96218.72
2023-05-14T17:09:43.223Z,96218.41
2023-05-14T17:12:14.870Z,96213.41
2023-05-14T17:14:46.424Z,96215.22
2023-05-14T17:17:18.728Z,96224.63
2023-05-14T17:19:50.347Z,96218.22
2023-05-14T17:22:21.937Z,96224.75
2023-05-14T17:24:53.515Z,96224.78
2023-05-14T17:27:26.153Z,96216.34
2023-05-14T17:29:57.738Z,96219.28
2023-05-14T17:32:30.073Z,96217.94
2023-05-14T17:35:01.758Z,96213.50
2023-05-14T17:37:33.412Z,96218.13
2023-05-14T17:40:10.089Z,96214.47
2023-05-14T17:42:41.753Z,96221.16
2023-05-14T17:45:14.494Z,96220.47
2023-05-14T17:47:49.310Z,96221.63
2023-05-14T17:50:21.113Z,96232.53
2023-05-14T17:52:53.343Z,96222.31
2023-05-14T17:55:25.917Z,96230.75
2023-05-14T17:57:57.773Z,96234.97
2023-05-14T18:00:30.156Z,96229.63
2023-05-14T18:03:02.420Z,96241.31
2023-05-14T18:05:34.828Z,96242.84
2023-05-14T18:08:06.537Z,96238.16
2023-05-14T18:10:38.378Z,96235.97
2023-05-14T18:13:10.050Z,96251.28
2023-05-14T18:15:41.957Z,96246.66
2023-05-14T18:18:17.116Z,96248.44
2023-05-14T18:20:49.509Z,96245.63
2023-05-14T18:23:21.264Z,96255.47
2023-05-14T18:25:52.975Z,96251.84
2023-05-14T18:28:24.704Z,96251.13
2023-05-14T18:30:59.489Z,96259.41
2023-05-14T18:33:35.044Z,96264.09
2023-05-14T18:36:06.754Z,96261.06
2023-05-14T18:38:38.578Z,96263.16
2023-05-14T18:41:10.244Z,96256.38
2023-05-14T18:43:41.860Z,96266.69
2023-05-14T18:46:16.229Z,96270.56
2023-05-14T18:48:47.947Z,96262.44
2023-05-14T18:51:19.531Z,96267.00
2023-05-14T18:53:51.096Z,96270.84
2023-05-14T18:56:22.679Z,96266.50
2023-05-14T18:58:54.402Z,96278.78
2023-05-14T19:01:26.211Z,96278.44
2023-05-14T19:03:57.905Z,96274.44
2023-05-14T19:06:29.614Z,96282.28
2023-05-14T19:09:01.453Z,96286.81
2023-05-14T19:11:33.067Z,96286.28
2023-05-14T19:14:04.647Z,96282.59
2023-05-14T19:16:38.702Z,96284.44
2023-05-14T19:19:10.497Z,96293.44
2023-05-14T19:21:42.168Z,96296.06
2023-05-14T19:24:13.921Z,96294.16
2023-05-14T19:26:47.689Z,96304.09
2023-05-14T19:29:22.260Z,96304.78
2023-05-14T19:31:53.888Z,96307.00
2023-05-14T19:34:27.111Z,96301.91
2023-05-14T19:36:58.830Z,96298.22
2023-05-14T19:39:33.543Z,96299.63
2023-05-14T19:42:05.772Z,96291.75
2023-05-14T19:44:37.419Z,96293.72
2023-05-14T19:47:09.137Z,96301.22
2023-05-14T19:49:41.301Z,96294.75
2023-05-14T19:52:13.087Z,96296.25
2023-05-14T19:54:44.662Z,96299.38
2023-05-14T19:57:19.430Z,96295.59
2023-05-14T19:59:51.014Z,96294.47
2023-05-14T20:02:22.712Z,96302.31
2023-05-14T20:04:56.673Z,96304.31
2023-05-14T20:07:29.445Z,96297.91
2023-05-14T20:10:01.434Z,96297.50
2023-05-14T20:12:35.863Z,96302.97
2023-05-14T20:15:10.415Z,96302.16
2023-05-14T20:17:42.546Z,96305.47
2023-05-14T20:20:14.341Z,96300.66
2023-05-14T20:22:45.957Z,96304.22
2023-05-14T20:25:17.599Z,96300.22
2023-05-14T20:27:49.602Z,96314.13
2023-05-14T20:30:21.148Z,96305.88
2023-05-14T20:32:52.955Z,96296.25
2023-05-14T20:35:24.821Z,96298.69
2023-05-14T20:37:56.647Z,96305.19
2023-05-14T20:40:28.237Z,96301.63
2023-05-14T20:43:07.081Z,96295.72
2023-05-14T20:45:39.165Z,96297.56
2023-05-14T20:48:12.868Z,96296.78
2023-05-14T20:50:44.595Z,96298.03
2023-05-14T20:53:16.203Z,96295.81
2023-05-14T20:55:47.830Z,96290.06
2023-05-14T20:58:20.445Z,96294.97
2023-05-14T21:00:52.118Z,96290.44
2023-05-14T21:03:23.879Z,96287.47
2023-05-14T21:05:56.848Z,96282.25
2023-05-14T21:08:28.914Z,96283.06
2023-05-14T21:11:00.570Z,96283.41
2023-05-14T21:13:32.600Z,96290.59
2023-05-14T21:16:04.575Z,96292.28
2023-05-14T21:18:36.650Z,96284.16
2023-05-14T21:21:08.345Z,96283.97
2023-05-14T21:23:39.973Z,96282.09
2023-05-14T21:26:11.733Z,96283.56
2023-05-14T21:28:43.420Z,96279.28
2023-05-14T21:31:15.056Z,96288.56
2023-05-14T21:33:46.742Z,96289.75
2023-05-14T21:36:18.415Z,96295.25
2023-05-14T21:38:50.059Z,96300.75
2023-05-14T21:41:21.787Z,96295.38
2023-05-14T21:43:55.530Z,96293.75
2023-05-14T21:46:28.877Z,96297.13
2023-05-14T21:49:02.719Z,96296.09
2023-05-14T21:51:34.314Z,96298.00
2023-05-14T21:54:07.244Z,96288.19
2023-05-14T21:56:38.860Z,96293.16
2023-05-14T21:59:11.177Z,96286.69
2023-05-14T22:02:04.732Z,96287.94
2023-05-14T22:04:37.838Z,96294.44
2023-05-14T22:07:09.411Z,96288.44
2023-05-14T22:09:44.080Z,96290.13
2023-05-14T22:12:15.636Z,96293.69
2023-05-14T22:14:47.252Z,96299.88
2023-05-14T22:17:18.821Z,96291.78
2023-05-14T22:19:50.412Z,96290.53
2023-05-14T22:22:21.992Z,96293.00
2023-05-14T22:24:53.752Z,96291.81
2023-05-14T22:27:25.684Z,96286.59
2023-05-14T22:29:58.441Z,96281.72
2023-05-14T22:32:30.140Z,96286.78
2023-05-14T22:35:01.991Z,96285.50
2023-05-14T22:37:33.646Z,96291.06
2023-05-14T22:40:07.733Z,96283.53
2023-05-14T22:42:39.359Z,96283.97
2023-05-14T22:45:11.355Z,96279.34
2023-05-14T22:47:42.978Z,96285.88
2023-05-14T22:50:15.221Z,96283.72
2023-05-14T22:52:46.764Z,96279.50
2023-05-14T22:55:18.379Z,96270.25
2023-05-14T22:57:49.981Z,96273.94
2023-05-14T23:00:21.745Z,96276.38
2023-05-14T23:02:53.377Z,96268.47
2023-05-14T23:05:25.379Z,96266.81
2023-05-14T23:08:02.518Z,96266.81
2023-05-14T23:10:35.602Z,96259.22
2023-05-14T23:13:07.268Z,96270.66
2023-05-14T23:15:38.957Z,96268.97
2023-05-14T23:18:10.871Z,96261.97
2023-05-14T23:20:42.561Z,96259.25
2023-05-14T23:23:14.130Z,96255.91
2023-05-14T23:25:45.799Z,96261.59
2023-05-14T23:28:18.534Z,96264.88
2023-05-14T23:30:50.119Z,96257.03
2023-05-14T23:33:21.676Z,96257.47
2023-05-14T23:35:53.274Z,96254.41
2023-05-14T23:38:24.908Z,96251.84
2023-05-14T23:40:56.493Z,96255.97
2023-05-14T23:43:28.303Z,96249.69
2023-05-14T23:46:00.539Z,96243.38
2023-05-14T23:48:32.696Z,96253.16
2023-05-14T23:51:04.266Z,96246.22
2023-05-14T23:53:35.828Z,96236.91
2023-05-14T23:56:10.108Z,96243.44
2023-05-14T23:58:42.058Z,96238.31
